Time;durP1;ratioP1;P1;durP2;ratioP2;P2;SDS_P1;SDS_P2;PMS_P1;PMS_P2;Temp;Humidity;BMP_temperature;BMP_pressure;BME280_temperature;BME280_humidity;BME280_pressure;Samples;Min_cycle;Max_cycle;Signal;HPM_P1;HPM_P2
2021/03/25 00:00:48;;;;;;;34.98;18.07;;;;;;;-0.34;57.37;94772.95;1737023;81;21117;-54
2021/03/25 00:03:17;;;;;;;37.55;18.45;;;;;;;-0.32;57.44;94778.75;1723899;81;21073;-54
2021/03/25 00:05:49;;;;;;;38.70;19.62;;;;;;;-0.24;57.07;94776.30;1758362;81;21143;-54
2021/03/25 00:08:22;;;;;;;38.80;19.40;;;;;;;-0.22;56.85;94763.94;1755054;81;22189;-59
2021/03/25 00:10:51;;;;;;;31.05;16.17;;;;;;;-0.24;56.77;94768.20;1749400;80;21200;-54
2021/03/25 00:13:21;;;;;;;29.63;16.73;;;;;;;-0.24;56.60;94769.55;1763141;80;21177;-54
2021/03/25 00:15:51;;;;;;;43.68;21.62;;;;;;;-0.33;56.76;94769.88;1747306;81;21183;-54
2021/03/25 00:18:19;;;;;;;40.43;21.35;;;;;;;-0.37;56.88;94760.95;1728002;81;21064;-56
2021/03/25 00:20:47;;;;;;;30.43;16.55;;;;;;;-0.36;56.98;94757.13;1745186;81;22101;-54
2021/03/25 00:23:17;;;;;;;45.20;24.10;;;;;;;-0.42;56.85;94749.75;1756222;81;21113;-55
2021/03/25 00:25:45;;;;;;;47.10;22.32;;;;;;;-0.67;56.90;94755.55;1757651;81;21144;-55
2021/03/25 00:28:15;;;;;;;52.10;25.50;;;;;;;-0.88;57.69;94754.05;1757602;81;21647;-55
2021/03/25 00:30:43;;;;;;;66.77;32.45;;;;;;;-0.92;58.18;94753.27;1754825;81;21164;-56
2021/03/25 00:33:15;;;;;;;68.35;32.25;;;;;;;-0.87;58.25;94759.66;1738662;81;22665;-55
2021/03/25 00:35:43;;;;;;;77.92;36.98;;;;;;;-0.84;58.10;94754.85;1734892;81;21114;-56
2021/03/25 00:38:14;;;;;;;83.67;36.40;;;;;;;-0.79;57.96;94753.94;1728790;82;21237;-55
2021/03/25 00:40:47;;;;;;;93.42;38.95;;;;;;;-0.83;57.90;94761.80;1717300;83;21146;-57
2021/03/25 00:43:16;;;;;;;77.32;35.98;;;;;;;-0.85;57.95;94758.14;1725179;82;21597;-55
2021/03/25 00:45:46;;;;;;;58.52;30.00;;;;;;;-0.94;58.17;94752.86;1734316;82;21363;-55
2021/03/25 00:48:16;;;;;;;52.98;28.50;;;;;;;-0.99;58.19;94750.52;1735329;81;21162;-55
2021/03/25 00:50:47;;;;;;;45.38;26.10;;;;;;;-1.08;58.48;94748.69;1714952;82;21138;-56
2021/03/25 00:53:23;;;;;;;51.08;27.50;;;;;;;-1.11;58.66;94748.09;1733739;82;21064;-55
2021/03/25 00:55:51;;;;;;;48.28;26.12;;;;;;;-1.12;58.86;94745.20;1726949;82;21183;-55
2021/03/25 00:58:19;;;;;;;43.75;24.12;;;;;;;-1.15;58.82;94741.89;1731668;82;21376;-55
2021/03/25 01:00:48;;;;;;;47.00;24.52;;;;;;;-1.16;58.97;94747.09;1728872;82;21120;-57
2021/03/25 01:03:19;;;;;;;71.28;32.33;;;;;;;-1.15;59.09;94746.70;1728403;83;21544;-54
2021/03/25 01:05:48;;;;;;;83.78;38.17;;;;;;;-1.11;58.98;94740.75;1729360;81;21063;-55
2021/03/25 01:08:32;;;;;;;61.75;31.15;;;;;;;-1.25;58.83;94749.31;1730700;82;21318;-55
2021/03/25 01:11:17;;;;;;;76.45;31.93;;;;;;;-1.32;59.39;94747.91;1734882;81;21151;-55
2021/03/25 01:13:49;;;;;;;72.90;34.18;;;;;;;-1.28;59.38;94737.92;1731539;82;21551;-55
2021/03/25 01:16:31;;;;;;;71.50;32.73;;;;;;;-1.22;59.33;94737.77;1732373;81;21634;-56
2021/03/25 01:19:01;;;;;;;138.52;46.45;;;;;;;-1.14;59.08;94739.40;1722595;82;21261;-54
2021/03/25 01:21:31;;;;;;;98.82;35.52;;;;;;;-1.09;58.97;94737.14;1729581;81;21712;-55
2021/03/25 01:23:59;;;;;;;29.52;16.67;;;;;;;-1.07;58.72;94738.09;1721122;82;22384;-55
2021/03/25 01:26:28;;;;;;;23.77;14.75;;;;;;;-1.10;58.38;94734.80;1737832;81;21096;-54
2021/03/25 01:29:00;;;;;;;18.50;12.47;;;;;;;-1.32;58.10;94729.03;1739658;81;21156;-53
2021/03/25 01:31:29;;;;;;;24.32;12.98;;;;;;;-1.59;58.80;94731.65;1737168;80;21260;-56
2021/03/25 01:34:00;;;;;;;31.85;17.50;;;;;;;-1.75;58.98;94729.19;1753077;80;21128;-54
2021/03/25 01:36:28;;;;;;;22.77;14.28;;;;;;;-1.93;59.47;94731.48;1735754;80;21472;-55
2021/03/25 01:38:59;;;;;;;23.60;13.70;;;;;;;-1.99;59.90;94730.27;1736456;81;21095;-55
2021/03/25 01:41:31;;;;;;;21.35;12.98;;;;;;;-1.96;59.98;94730.87;1718526;82;21071;-55
2021/03/25 01:44:02;;;;;;;25.20;14.13;;;;;;;-1.96;59.65;94739.55;1734929;81;21115;-55
2021/03/25 01:46:36;;;;;;;48.75;21.48;;;;;;;-2.04;59.92;94736.55;1739949;81;21206;-58
2021/03/25 01:49:10;;;;;;;53.40;24.85;;;;;;;-2.00;60.12;94732.75;1738198;81;21483;-52
2021/03/25 01:51:54;;;;;;;47.58;22.93;;;;;;;-1.92;60.07;94734.95;1735501;81;21231;-54
2021/03/25 01:55:10;;;;;;;38.83;18.25;;;;;;;-1.89;59.85;94738.27;1739058;80;21586;-54
2021/03/25 01:58:15;;;;;;;31.25;15.75;;;;;;;-1.92;59.80;94742.45;1733881;82;21488;-55
2021/03/25 02:00:56;;;;;;;23.35;14.60;;;;;;;-1.92;59.58;94741.11;1732875;81;21115;-54
2021/03/25 02:03:54;;;;;;;25.48;13.98;;;;;;;-1.98;59.39;94739.14;1732873;81;21367;-55
2021/03/25 02:06:34;;;;;;;45.63;22.95;;;;;;;-2.17;59.47;94736.02;1739809;81;21084;-55
2021/03/25 02:09:18;;;;;;;31.10;16.93;;;;;;;-2.34;60.19;94733.87;1745815;81;21146;-57
2021/03/25 02:12:06;;;;;;;13.75;9.60;;;;;;;-2.35;60.40;94733.67;1739009;81;21083;-55
2021/03/25 02:14:46;;;;;;;14.30;10.23;;;;;;;-2.40;60.01;94723.78;1733209;82;21218;-54
2021/03/25 02:17:26;;;;;;;35.43;16.50;;;;;;;-2.59;60.18;94723.37;1738480;82;21083;-55
2021/03/25 02:20:28;;;;;;;56.48;26.00;;;;;;;-2.85;60.72;94727.41;1873368;76;22791;-56
2021/03/25 02:23:34;;;;;;;56.77;25.50;;;;;;;-3.14;61.40;94732.17;1841523;77;21018;-55
2021/03/25 02:26:05;;;;;;;41.28;21.50;;;;;;;-3.37;62.09;94723.91;1841449;77;21891;-54
2021/03/25 02:29:11;;;;;;;88.07;40.28;;;;;;;-3.47;62.61;94712.41;1841067;77;21041;-54
2021/03/25 02:31:42;;;;;;;83.03;39.08;;;;;;;-3.57;63.04;94712.44;1816468;78;21080;-54
2021/03/25 02:34:22;;;;;;;49.95;24.12;;;;;;;-3.51;63.47;94719.09;1808266;79;21164;-56
2021/03/25 02:37:06;;;;;;;62.00;27.70;;;;;;;-3.32;63.35;94713.64;1779081;79;21167;-54
2021/03/25 02:39:44;;;;;;;53.68;27.45;;;;;;;-3.13;62.96;94711.42;1808321;79;21135;-54
2021/03/25 02:42:16;;;;;;;44.65;24.82;;;;;;;-3.06;62.63;94705.58;1801073;79;21124;-55
2021/03/25 02:44:52;;;;;;;48.42;24.95;;;;;;;-3.05;62.74;94703.09;1808230;79;21120;-54
2021/03/25 02:47:21;;;;;;;54.70;25.15;;;;;;;-2.94;62.38;94705.94;1808054;79;21194;-54
2021/03/25 02:50:00;;;;;;;101.18;49.53;;;;;;;-2.93;62.01;94706.14;1808402;79;21465;-54
2021/03/25 02:52:41;;;;;;;60.03;30.48;;;;;;;-3.14;62.32;94714.69;1807996;79;23472;-54
2021/03/25 02:55:12;;;;;;;85.85;41.95;;;;;;;-3.19;62.71;94712.87;1808143;78;21109;-53
2021/03/25 02:58:03;;;;;;;70.15;35.25;;;;;;;-3.20;62.92;94710.73;1808518;78;21085;-54
2021/03/25 03:00:49;;;;;;;43.28;23.22;;;;;;;-3.15;63.09;94698.34;1889750;75;21935;-54
2021/03/25 03:03:21;;;;;;;45.92;24.02;;;;;;;-3.12;62.88;94711.06;1860603;77;21124;-54
2021/03/25 03:06:07;;;;;;;41.88;23.12;;;;;;;-3.02;62.76;94707.74;1860667;77;21185;-55
2021/03/25 03:08:41;;;;;;;60.80;29.65;;;;;;;-2.88;62.44;94707.95;1854890;77;21151;-55
2021/03/25 03:11:21;;;;;;;55.28;28.85;;;;;;;-2.78;62.14;94715.97;1860565;77;21540;-55
2021/03/25 03:14:04;;;;;;;82.53;41.15;;;;;;;-2.78;62.20;94710.03;1860685;77;21063;-54
2021/03/25 03:16:46;;;;;;;82.65;36.85;;;;;;;-2.76;62.11;94713.13;1860523;77;21144;-55
2021/03/25 03:19:29;;;;;;;82.62;38.00;;;;;;;-2.66;61.99;94719.22;1856709;77;21376;-53
2021/03/25 03:22:00;;;;;;;63.73;30.27;;;;;;;-2.65;61.61;94711.93;1860645;77;20970;-54
2021/03/25 03:24:50;;;;;;;67.53;32.13;;;;;;;-2.66;61.56;94711.14;1860109;77;21567;-53
2021/03/25 03:27:28;;;;;;;85.12;37.85;;;;;;;-2.60;61.38;94712.95;1859749;77;21136;-53
2021/03/25 03:29:57;;;;;;;74.45;38.48;;;;;;;-2.55;61.08;94714.00;1859806;76;21113;-53
2021/03/25 03:32:34;;;;;;;55.63;27.07;;;;;;;-2.53;60.85;94712.47;1806343;79;21205;-53
2021/03/25 03:35:11;;;;;;;54.48;24.05;;;;;;;-2.58;60.42;94714.15;1766011;80;21099;-55
2021/03/25 03:37:44;;;;;;;40.75;20.05;;;;;;;-2.75;60.60;94719.27;1748266;80;21158;-54
2021/03/25 03:40:25;;;;;;;90.05;44.95;;;;;;;-2.77;60.77;94721.00;1777696;79;21108;-57
2021/03/25 03:43:07;;;;;;;47.50;26.27;;;;;;;-2.78;60.74;94719.45;1777708;80;21579;-54
2021/03/25 03:45:42;;;;;;;56.55;28.80;;;;;;;-2.80;60.96;94727.12;1777600;80;21185;-55
2021/03/25 03:48:44;;;;;;;55.10;26.57;;;;;;;-2.84;60.56;94728.95;1777242;80;21167;-55
2021/03/25 03:51:18;;;;;;;44.48;20.45;;;;;;;-3.06;60.90;94731.13;1777793;80;21476;-55
2021/03/25 03:53:45;;;;;;;36.83;19.37;;;;;;;-3.20;61.27;94728.80;1777484;80;21134;-55
2021/03/25 03:56:56;;;;;;;43.13;21.40;;;;;;;-3.19;61.45;94739.77;1777519;80;21115;-55
2021/03/25 03:59:48;;;;;;;42.40;22.73;;;;;;;-3.21;61.49;94728.02;1780262;80;22396;-55
2021/03/25 04:02:33;;;;;;;48.50;27.25;;;;;;;-3.24;61.52;94730.66;1785993;80;21153;-54
2021/03/25 04:05:20;;;;;;;30.25;17.70;;;;;;;-3.31;61.83;94732.67;1773882;80;21059;-53
2021/03/25 04:08:03;;;;;;;26.60;15.10;;;;;;;-3.51;61.87;94728.50;1786314;79;21495;-54
2021/03/25 04:10:45;;;;;;;26.77;15.05;;;;;;;-3.73;62.25;94735.78;1889755;75;22760;-53
2021/03/25 04:13:21;;;;;;;43.92;16.93;;;;;;;-3.95;62.63;94735.95;1860876;77;21094;-54
2021/03/25 04:15:51;;;;;;;30.75;15.60;;;;;;;-3.93;63.20;94739.61;1860720;77;22404;-53
2021/03/25 04:18:42;;;;;;;41.95;16.97;;;;;;;-3.82;62.73;94732.53;1860476;77;21048;-54
2021/03/25 04:21:20;;;;;;;20.05;12.03;;;;;;;-3.80;62.35;94730.27;1787687;77;21098;-54
2021/03/25 04:23:50;;;;;;;19.02;11.63;;;;;;;-3.86;62.38;94733.05;1854976;77;21027;-53
2021/03/25 04:26:42;;;;;;;22.22;14.05;;;;;;;-4.05;62.31;94727.70;1825172;77;20944;-66
2021/03/25 04:29:28;;;;;;;33.90;20.20;;;;;;;-4.10;62.84;94729.31;1855412;76;22257;-55
2021/03/25 04:31:59;;;;;;;43.98;22.20;;;;;;;-4.08;63.17;94728.42;1799623;78;21553;-54
2021/03/25 04:34:27;;;;;;;58.17;24.72;;;;;;;-3.93;63.19;94736.92;1795438;78;21005;-54
2021/03/25 04:36:56;;;;;;;40.48;23.95;;;;;;;-3.78;62.86;94738.74;1841402;78;21112;-54
2021/03/25 04:39:26;;;;;;;53.17;23.95;;;;;;;-3.62;62.58;94736.73;1841338;78;21084;-54
2021/03/25 04:41:54;;;;;;;88.27;33.83;;;;;;;-3.45;62.10;94732.43;1841069;78;23520;-56
2021/03/25 04:44:34;;;;;;;89.58;36.77;;;;;;;-3.37;61.76;94734.12;1811559;78;21056;-55
2021/03/25 04:47:23;;;;;;;46.35;22.52;;;;;;;-3.27;61.52;94746.94;1841374;77;21053;-54
2021/03/25 04:50:25;;;;;;;43.83;22.25;;;;;;;-3.26;61.18;94744.46;1811518;78;21520;-54
2021/03/25 04:53:22;;;;;;;87.17;29.90;;;;;;;-3.25;61.20;94740.63;1841550;77;21166;-55
2021/03/25 04:55:52;;;;;;;70.00;28.42;;;;;;;-3.24;61.01;94744.88;1841344;77;21524;-55
2021/03/25 04:58:28;;;;;;;97.97;45.70;;;;;;;-3.28;61.18;94748.08;1841123;77;21004;-56
2021/03/25 05:01:16;;;;;;;155.45;74.90;;;;;;;-3.23;61.50;94754.49;1841274;77;21202;-54
2021/03/25 05:03:47;;;;;;;121.02;53.55;;;;;;;-3.14;61.53;94750.22;1785739;78;21111;-54
2021/03/25 05:06:21;;;;;;;136.37;66.77;;;;;;;-3.16;61.17;94753.84;1841277;77;21131;-55
2021/03/25 05:08:50;;;;;;;163.32;78.22;;;;;;;-3.26;61.49;94757.91;1841610;77;21454;-55
2021/03/25 05:11:20;;;;;;;105.27;51.90;;;;;;;-3.25;61.68;94764.84;1793137;77;21047;-55
2021/03/25 05:13:50;;;;;;;123.90;51.53;;;;;;;-3.29;61.54;94754.59;1844385;77;21054;-55
2021/03/25 05:16:42;;;;;;;83.90;43.38;;;;;;;-3.31;62.01;94754.18;1819545;77;21056;-55
2021/03/25 05:19:31;;;;;;;108.42;45.85;;;;;;;-3.24;61.81;94763.70;1845871;77;21032;-55
2021/03/25 05:22:35;;;;;;;104.58;47.55;;;;;;;-3.26;61.60;94760.59;1832016;78;21202;-56
2021/03/25 05:25:17;;;;;;;87.78;44.13;;;;;;;-3.28;61.77;94762.87;1831877;78;21573;-54
2021/03/25 05:27:55;;;;;;;93.58;48.05;;;;;;;-3.30;61.85;94775.11;1832155;78;21181;-55
2021/03/25 05:30:27;;;;;;;189.28;91.40;;;;;;;-3.28;62.15;94779.01;1831986;78;21113;-56
2021/03/25 05:33:06;;;;;;;193.13;88.83;;;;;;;-3.16;62.10;94787.45;1802765;78;21126;-55
2021/03/25 05:35:41;;;;;;;128.12;65.15;;;;;;;-3.13;61.88;94780.01;1804126;78;22114;-56
2021/03/25 05:38:09;;;;;;;101.72;52.83;;;;;;;-3.18;61.91;94778.42;1832324;78;21162;-55
2021/03/25 05:40:49;;;;;;;104.30;56.60;;;;;;;-3.20;61.92;94787.97;1832380;78;21166;-56
2021/03/25 05:43:59;;;;;;;107.20;55.23;;;;;;;-3.35;61.96;94791.55;1832298;78;21589;-55
2021/03/25 05:46:48;;;;;;;65.97;36.60;;;;;;;-3.38;62.52;94799.75;1814680;78;21677;-55
2021/03/25 05:49:30;;;;;;;74.35;37.95;;;;;;;-3.27;62.22;94799.38;1832478;78;23528;-56
2021/03/25 05:52:31;;;;;;;72.10;38.78;;;;;;;-3.32;62.02;94799.69;1832403;78;21467;-56
2021/03/25 05:55:22;;;;;;;81.87;43.63;;;;;;;-3.25;62.41;94793.66;1832480;78;21113;-55
2021/03/25 05:58:31;;;;;;;77.35;40.20;;;;;;;-3.26;61.81;94792.87;1832481;78;21054;-60
2021/03/25 06:01:11;;;;;;;74.45;43.78;;;;;;;-3.37;61.73;94802.68;1832315;78;21690;-55
2021/03/25 06:03:41;;;;;;;81.63;52.10;;;;;;;-3.59;62.24;94802.66;1832477;78;21370;-55
2021/03/25 06:06:14;;;;;;;99.05;53.63;;;;;;;-3.62;62.75;94806.61;1832430;78;21498;-57
2021/03/25 06:09:04;;;;;;;84.42;42.90;;;;;;;-3.51;63.08;94800.29;1832447;78;21171;-56
2021/03/25 06:12:06;;;;;;;83.92;42.15;;;;;;;-3.26;62.78;94807.66;1832507;78;21114;-55
2021/03/25 06:14:53;;;;;;;55.25;29.82;;;;;;;-3.11;62.29;94804.08;1829967;77;21195;-56
2021/03/25 06:17:39;;;;;;;93.85;49.42;;;;;;;-2.99;61.91;94806.59;1832216;78;21188;-57
2021/03/25 06:20:27;;;;;;;103.87;57.17;;;;;;;-2.63;61.59;94818.12;1830817;78;21501;-56
2021/03/25 06:23:34;;;;;;;71.97;35.58;;;;;;;-2.31;61.18;94814.53;1813744;78;21431;-59
2021/03/25 06:26:46;;;;;;;54.75;27.17;;;;;;;-2.05;60.10;94813.93;1824525;77;21174;-58
2021/03/25 06:29:22;;;;;;;43.28;22.37;;;;;;;-1.87;59.35;94816.28;1825239;78;21158;-60
2021/03/25 06:32:34;;;;;;;38.23;19.92;;;;;;;-1.94;58.45;94813.47;1825837;77;21197;-59
2021/03/25 06:35:14;;;;;;;47.10;25.70;;;;;;;-2.05;58.59;94809.89;1831325;77;21098;-59
2021/03/25 06:38:06;;;;;;;47.78;25.57;;;;;;;-2.02;58.57;94805.11;1826868;77;21585;-57
2021/03/25 06:40:47;;;;;;;45.63;23.60;;;;;;;-1.85;58.99;94815.89;1828954;77;21111;-59
2021/03/25 06:43:45;;;;;;;56.00;30.37;;;;;;;-1.78;58.36;94810.61;1824251;77;21163;-60
2021/03/25 06:46:27;;;;;;;72.30;35.92;;;;;;;-1.60;58.16;94813.14;1799111;78;21243;-58
2021/03/25 06:49:00;;;;;;;41.02;23.25;;;;;;;-1.40;57.99;94818.55;1817502;78;21186;-54
2021/03/25 06:51:32;;;;;;;52.15;25.82;;;;;;;-1.12;57.27;94808.03;1824806;78;21146;-62
2021/03/25 06:54:15;;;;;;;50.80;24.98;;;;;;;-1.05;56.90;94810.02;1821216;78;21641;-57
2021/03/25 06:56:47;;;;;;;52.93;28.27;;;;;;;-0.83;56.87;94811.19;1827276;78;22432;-58
2021/03/25 06:59:31;;;;;;;38.35;23.80;;;;;;;-0.62;56.06;94809.25;1820669;78;21255;-56
2021/03/25 07:02:20;;;;;;;42.40;23.30;;;;;;;-0.53;55.81;94809.69;1809414;78;21431;-65
2021/03/25 07:04:50;;;;;;;66.12;28.05;;;;;;;-0.40;55.94;94806.30;1814348;78;21157;-59
2021/03/25 07:07:25;;;;;;;44.67;25.52;;;;;;;-0.20;55.63;94808.94;1814116;78;21633;-57
2021/03/25 07:09:53;;;;;;;50.05;28.05;;;;;;;-0.16;54.74;94806.27;1819010;78;21115;-63
2021/03/25 07:12:29;;;;;;;53.23;28.62;;;;;;;-0.16;54.72;94798.15;1808374;77;22839;-69
2021/03/25 07:14:57;;;;;;;46.40;25.65;;;;;;;0.03;54.38;94798.06;1792608;78;21111;-63
2021/03/25 07:17:39;;;;;;;39.85;25.52;;;;;;;0.16;53.81;94800.64;1811882;78;21614;-63
2021/03/25 07:20:28;;;;;;;51.60;27.87;;;;;;;0.30;53.39;94795.30;1819276;77;21177;-62
2021/03/25 07:23:11;;;;;;;54.50;29.63;;;;;;;0.45;53.28;94795.53;1813485;78;21085;-63
2021/03/25 07:25:46;;;;;;;58.63;28.12;;;;;;;0.61;52.78;94797.32;1803091;78;21419;-58
2021/03/25 07:28:19;;;;;;;61.15;29.18;;;;;;;0.61;52.58;94787.84;1818915;78;21181;-64
2021/03/25 07:30:56;;;;;;;53.73;31.05;;;;;;;0.64;52.74;94786.31;1815157;77;22211;-56
2021/03/25 07:33:39;;;;;;;55.15;29.20;;;;;;;0.70;52.41;94776.66;1860435;75;23269;-64
2021/03/25 07:36:11;;;;;;;51.13;28.67;;;;;;;0.63;52.62;94777.41;1768514;80;21250;-66
2021/03/25 07:38:40;;;;;;;60.30;34.20;;;;;;;0.69;52.52;94778.61;1829840;77;22793;-62
2021/03/25 07:41:27;;;;;;;59.42;29.40;;;;;;;0.76;52.59;94770.48;1811010;77;21606;-65
2021/03/25 07:44:01;;;;;;;64.00;32.05;;;;;;;0.86;52.45;94764.33;1824376;77;21186;-59
2021/03/25 07:46:46;;;;;;;51.58;27.95;;;;;;;1.00;52.27;94769.73;1821026;77;21134;-61
2021/03/25 07:49:27;;;;;;;57.35;29.72;;;;;;;1.29;52.11;94767.24;1822945;77;21200;-61
2021/03/25 07:52:02;;;;;;;48.30;26.95;;;;;;;1.40;51.73;94765.31;1829830;77;21364;-57
2021/03/25 07:54:41;;;;;;;44.67;25.45;;;;;;;1.53;50.96;94771.87;1780928;79;21142;-58
2021/03/25 07:57:15;;;;;;;45.05;26.05;;;;;;;1.62;50.66;94766.05;1745303;80;21282;-60
2021/03/25 07:59:53;;;;;;;38.23;22.73;;;;;;;1.69;50.43;94772.84;1748871;81;21155;-69
2021/03/25 08:02:35;;;;;;;51.28;28.83;;;;;;;1.79;50.12;94765.44;1780672;79;22062;-63
2021/03/25 08:05:28;;;;;;;63.10;35.87;;;;;;;1.93;49.91;94767.36;1825355;77;21179;-61
2021/03/25 08:08:05;;;;;;;31.33;19.25;;;;;;;2.09;49.85;94762.26;1827448;77;21186;-75
2021/03/25 08:10:41;;;;;;;51.10;22.62;;;;;;;2.32;48.76;94761.22;1794312;77;21202;-64
2021/03/25 08:13:24;;;;;;;41.75;24.25;;;;;;;2.40;48.71;94747.80;1821886;77;21190;-64
2021/03/25 08:16:06;;;;;;;45.98;24.25;;;;;;;2.49;48.11;94756.30;1816029;77;21149;-61
2021/03/25 08:19:21;;;;;;;62.15;28.17;;;;;;;2.69;48.26;94749.97;1826050;77;21171;-56
2021/03/25 08:22:20;;;;;;;59.50;30.20;;;;;;;2.79;48.38;94746.44;1824357;77;21205;-64
2021/03/25 08:25:28;;;;;;;38.85;23.42;;;;;;;2.91;49.19;94749.27;1821701;76;21194;-62
2021/03/25 08:28:21;;;;;;;61.92;33.23;;;;;;;3.14;48.75;94742.69;1824423;76;22232;-58
2021/03/25 08:31:24;;;;;;;63.63;26.15;;;;;;;3.37;47.33;94742.32;1813003;77;21645;-70
2021/03/25 08:34:13;;;;;;;44.00;26.27;;;;;;;3.58;46.94;94733.40;1778699;79;22170;-69
2021/03/25 08:37:31;;;;;;;39.40;23.10;;;;;;;3.84;46.96;94739.55;1791676;79;21985;-60
2021/03/25 08:40:08;;;;;;;35.48;20.85;;;;;;;4.10;46.51;94729.37;1786334;79;21028;-61
2021/03/25 08:42:45;;;;;;;30.15;18.77;;;;;;;4.45;45.00;94730.89;1794424;78;21202;-57
2021/03/25 08:46:02;;;;;;;20.95;13.83;;;;;;;4.64;44.63;94716.63;1789954;79;21732;-66
2021/03/25 08:48:56;;;;;;;16.07;8.98;;;;;;;4.86;44.44;94717.30;1802742;79;21278;-62
2021/03/25 08:51:39;;;;;;;26.02;13.22;;;;;;;5.19;42.46;94710.93;1798684;79;21147;-64
2021/03/25 08:54:21;;;;;;;19.35;8.95;;;;;;;5.41;44.03;94717.00;1792156;78;22463;-59
2021/03/25 08:57:02;;;;;;;10.15;8.23;;;;;;;5.61;41.92;94712.98;1785832;78;21539;-60
2021/03/25 09:00:06;;;;;;;10.68;7.33;;;;;;;5.76;41.72;94705.49;1773570;79;21127;-62
2021/03/25 09:02:48;;;;;;;14.83;8.58;;;;;;;5.95;42.47;94716.31;1801318;79;22373;-59
2021/03/25 09:05:30;;;;;;;15.48;7.95;;;;;;;6.00;40.08;94702.17;1805156;79;21158;-60
2021/03/25 09:08:00;;;;;;;11.97;7.83;;;;;;;6.02;40.21;94708.77;1803936;78;21214;-62
2021/03/25 09:10:44;;;;;;;9.30;6.80;;;;;;;6.12;41.54;94711.11;1786180;79;21198;-64
2021/03/25 09:13:19;;;;;;;12.85;7.62;;;;;;;6.28;40.93;94708.44;1726272;82;21227;-62
2021/03/25 09:15:49;;;;;;;9.90;6.10;;;;;;;6.40;39.55;94703.71;1761927;80;21541;-58
2021/03/25 09:18:24;;;;;;;9.65;6.03;;;;;;;6.41;39.40;94701.16;1756803;80;21162;-57
2021/03/25 09:20:55;;;;;;;19.65;8.08;;;;;;;6.47;39.50;94694.00;1747020;80;21136;-64
2021/03/25 09:23:35;;;;;;;9.95;6.67;;;;;;;6.52;39.15;94715.38;1718495;80;21201;-60
2021/03/25 09:26:15;;;;;;;15.40;7.90;;;;;;;6.56;39.20;94716.08;1731769;81;21199;-58
2021/03/25 09:29:00;;;;;;;11.40;7.45;;;;;;;6.67;38.83;94712.53;1731819;82;21587;-59
2021/03/25 09:31:42;;;;;;;10.03;8.00;;;;;;;6.86;38.86;94705.66;1722867;81;22115;-62
2021/03/25 09:34:23;;;;;;;10.48;7.33;;;;;;;7.08;37.65;94707.33;1757968;80;21434;-58
2021/03/25 09:37:18;;;;;;;11.12;7.97;;;;;;;7.25;38.12;94708.27;1750022;81;21135;-60
2021/03/25 09:39:49;;;;;;;;;;;;;;;7.34;37.62;94705.11;1744326;81;21301;-58
2021/03/25 09:42:26;;;;;;;10.93;7.72;;;;;;;7.47;36.88;94697.77;1738606;81;21387;-61
2021/03/25 09:45:33;;;;;;;13.03;7.50;;;;;;;7.63;37.34;94694.24;1781849;78;22687;-60
2021/03/25 09:48:03;;;;;;;12.50;8.38;;;;;;;7.75;36.47;94690.23;1741379;79;21531;-61
2021/03/25 09:50:33;;;;;;;19.85;9.30;;;;;;;8.01;36.98;94702.05;1749521;80;22305;-64
2021/03/25 09:53:16;;;;;;;26.07;8.05;;;;;;;8.24;35.47;94696.39;1745185;81;21165;-59
2021/03/25 09:56:02;;;;;;;10.20;7.25;;;;;;;8.46;35.60;94691.24;1747688;80;21185;-64
2021/03/25 09:58:46;;;;;;;15.58;9.53;;;;;;;8.86;34.79;94687.55;1871709;76;22683;-59
2021/03/25 10:01:43;;;;;;;14.47;9.45;;;;;;;9.21;34.94;94688.63;1838794;77;21130;-64
2021/03/25 10:04:38;;;;;;;8.65;6.75;;;;;;;9.77;33.98;94691.68;1816573;77;22295;-59
2021/03/25 10:07:18;;;;;;;8.68;6.65;;;;;;;10.25;32.01;94691.84;1780321;79;21108;-63
2021/03/25 10:09:57;;;;;;;12.33;7.92;;;;;;;10.54;31.24;94700.02;1830973;77;21110;-61
2021/03/25 10:13:06;;;;;;;12.10;7.25;;;;;;;10.89;31.86;94698.13;1837591;77;21131;-65
2021/03/25 10:15:58;;;;;;;8.63;6.70;;;;;;;11.24;30.57;94701.51;1761630;80;21129;-60
2021/03/25 10:18:35;;;;;;;11.93;6.78;;;;;;;11.52;29.98;94703.92;1768797;79;22391;-58
2021/03/25 10:21:13;;;;;;;12.25;7.15;;;;;;;11.70;28.86;94704.01;1803448;77;22205;-65
2021/03/25 10:23:56;;;;;;;10.78;6.08;;;;;;;11.84;29.38;94695.17;1818362;77;21519;-58
2021/03/25 10:26:39;;;;;;;9.10;5.90;;;;;;;11.96;29.21;94699.02;1818818;77;21190;-62
2021/03/25 10:29:14;;;;;;;10.30;7.05;;;;;;;12.11;28.81;94696.59;1815492;76;21107;-62
2021/03/25 10:31:51;;;;;;;9.68;6.30;;;;;;;12.27;28.45;94699.05;1795391;77;21207;-53
2021/03/25 10:34:41;;;;;;;12.55;6.87;;;;;;;12.56;27.32;94706.28;1784434;79;20992;-58
2021/03/25 10:37:27;;;;;;;10.68;7.35;;;;;;;12.65;27.33;94697.38;1790102;79;21122;-60
2021/03/25 10:40:16;;;;;;;9.75;6.55;;;;;;;12.74;27.56;94692.47;1786169;79;21156;-60
2021/03/25 10:43:01;;;;;;;9.48;5.97;;;;;;;12.86;27.79;94692.30;1786031;79;21124;-59
2021/03/25 10:45:49;;;;;;;7.90;5.55;;;;;;;13.20;27.04;94692.55;1803435;79;22288;-58
2021/03/25 10:48:28;;;;;;;10.58;5.87;;;;;;;13.48;26.77;94684.33;1803806;79;21627;-59
2021/03/25 10:51:15;;;;;;;13.62;5.97;;;;;;;13.61;26.84;94683.52;1787738;79;21514;-66
2021/03/25 10:53:52;;;;;;;9.43;5.70;;;;;;;13.81;26.25;94689.24;1780544;78;21202;-64
2021/03/25 10:56:29;;;;;;;6.65;4.95;;;;;;;13.95;26.48;94678.84;1785034;79;21572;-64
2021/03/25 10:59:08;;;;;;;11.12;5.40;;;;;;;14.09;25.00;94687.84;1781151;79;21364;-65
2021/03/25 11:01:36;;;;;;;8.80;6.33;;;;;;;14.20;26.01;94668.75;1786409;79;21131;-58
2021/03/25 11:04:25;;;;;;;11.78;5.53;;;;;;;14.35;24.79;94683.41;1783557;79;21493;-59
2021/03/25 11:06:55;;;;;;;7.33;4.90;;;;;;;14.47;25.76;94674.84;1787574;79;21139;-59
2021/03/25 11:09:28;;;;;;;7.45;4.80;;;;;;;14.65;25.73;94671.28;1798228;79;21180;-63
2021/03/25 11:12:06;;;;;;;9.60;4.70;;;;;;;14.81;24.67;94675.63;1772888;80;21169;-63
2021/03/25 11:14:40;;;;;;;6.92;4.72;;;;;;;14.80;23.35;94672.72;1771875;79;21181;-58
2021/03/25 11:17:25;;;;;;;7.62;4.65;;;;;;;14.54;23.71;94664.77;1772061;80;21174;-62
2021/03/25 11:19:55;;;;;;;10.48;5.45;;;;;;;14.47;24.30;94668.67;1789219;79;22398;-67
2021/03/25 11:22:23;;;;;;;6.50;4.92;;;;;;;14.51;24.34;94665.73;1773966;79;21179;-59
2021/03/25 11:24:52;;;;;;;6.90;4.60;;;;;;;14.33;23.44;94665.13;1776364;78;21311;-67
2021/03/25 11:27:22;;;;;;;14.95;6.53;;;;;;;14.29;24.01;94665.30;1770310;79;21218;-67
2021/03/25 11:30:27;;;;;;;14.73;7.15;;;;;;;14.31;24.09;94659.27;1784316;79;21691;-60
2021/03/25 11:32:56;;;;;;;10.63;5.80;;;;;;;14.37;23.67;94662.30;1784898;80;21709;-68
2021/03/25 11:35:39;;;;;;;7.83;4.62;;;;;;;14.45;23.58;94661.46;1747863;82;21142;-60
2021/03/25 11:38:34;;;;;;;5.53;4.50;;;;;;;14.64;22.29;94661.45;1748722;81;26699;-64
2021/03/25 11:41:15;;;;;;;11.78;6.83;;;;;;;14.61;23.02;94663.80;1735606;81;21216;-64
2021/03/25 11:43:51;;;;;;;7.30;5.00;;;;;;;14.66;22.40;94658.97;1715429;81;21166;-69
2021/03/25 11:46:37;;;;;;;7.83;4.80;;;;;;;14.91;23.08;94651.52;1747016;80;21211;-59
2021/03/25 11:49:20;;;;;;;8.73;5.20;;;;;;;15.32;23.18;94649.09;1736889;80;21192;-62
2021/03/25 11:51:58;;;;;;;12.70;5.15;;;;;;;15.54;23.84;94643.89;1734368;81;21387;-63
2021/03/25 11:54:34;;;;;;;9.28;5.05;;;;;;;15.66;23.17;94646.98;1751037;81;21520;-59
2021/03/25 11:57:11;;;;;;;8.48;4.50;;;;;;;15.71;22.64;94639.36;1761847;81;21235;-60
2021/03/25 11:59:41;;;;;;;14.00;6.78;;;;;;;15.75;22.87;94641.30;1752841;81;21182;-57
2021/03/25 12:02:25;;;;;;;8.05;5.53;;;;;;;15.88;23.35;94646.55;1751318;80;21683;-65
2021/03/25 12:04:56;;;;;;;15.40;5.87;;;;;;;16.00;21.87;94654.53;1737671;81;22101;-58
2021/03/25 12:07:26;;;;;;;12.60;6.37;;;;;;;16.09;21.90;94646.06;1737260;81;21532;-60
2021/03/25 12:10:13;;;;;;;10.28;6.10;;;;;;;16.26;22.30;94653.98;1738839;81;21766;-65
2021/03/25 12:12:43;;;;;;;12.25;5.45;;;;;;;16.42;22.04;94652.07;1736622;80;21275;-64
2021/03/25 12:15:14;;;;;;;20.48;6.10;;;;;;;16.56;21.93;94648.45;1722290;81;21246;-63
2021/03/25 12:17:53;;;;;;;14.93;5.90;;;;;;;16.82;21.38;94648.63;1742264;80;22176;-63
2021/03/25 12:20:29;;;;;;;17.05;5.33;;;;;;;16.76;20.79;94634.53;1744460;81;21223;-65
2021/03/25 12:23:09;;;;;;;8.30;4.37;;;;;;;16.66;21.69;94641.48;1747960;81;21486;-61